Time;durP1;ratioP1;P1;durP2;ratioP2;P2;SDS_P1;SDS_P2;PMS_P1;PMS_P2;Temp;Humidity;BMP_temperature;BMP_pressure;BME280_temperature;BME280_humidity;BME280_pressure;Samples;Min_cycle;Max_cycle;Signal;HPM_P1;HPM_P2
2022/06/06 00:01:59;;;;;;;47.60;23.23;;;;;;;;;;4868504;29;20058;-70
2022/06/06 00:04:27;;;;;;;61.90;22.27;;;;;;;;;;4851234;29;20040;-69
2022/06/06 00:06:53;;;;;;;66.13;25.33;;;;;;;;;;4853356;29;21037;-70
2022/06/06 00:09:18;;;;;;;56.75;24.90;;;;;;;;;;4864678;29;20052;-69
2022/06/06 00:11:44;;;;;;;52.47;23.13;;;;;;;;;;4870875;29;20047;-70
2022/06/06 00:14:10;;;;;;;58.40;22.38;;;;;;;;;;4870550;29;20036;-68
2022/06/06 00:16:36;;;;;;;60.45;20.90;;;;;;;;;;4837361;29;20127;-69
2022/06/06 00:19:02;;;;;;;57.83;21.35;;;;;;;;;;4868961;29;20036;-70
2022/06/06 00:21:30;;;;;;;64.88;24.45;;;;;;;;;;4871234;29;20075;-70
2022/06/06 00:23:59;;;;;;;64.60;23.67;;;;;;;;;;4864506;29;20040;-69
2022/06/06 00:26:25;;;;;;;54.78;23.45;;;;;;;;;;4873526;29;20063;-68
2022/06/06 00:28:50;;;;;;;53.60;23.88;;;;;;;;;;4896947;29;20111;-69
2022/06/06 00:36:46;;;;;;;39.72;17.65;;;;;;;;;;4886073;29;20036;-73
2022/06/06 00:39:12;;;;;;;33.85;17.10;;;;;;;;;;4876354;29;20098;-70
2022/06/06 00:41:38;;;;;;;39.08;16.95;;;;;;;;;;4871195;29;20147;-71
2022/06/06 00:44:07;;;;;;;40.15;16.63;;;;;;;;;;4878546;29;20044;-71
2022/06/06 00:46:37;;;;;;;37.15;16.40;;;;;;;;;;4872261;29;20035;-70
2022/06/06 00:49:03;;;;;;;41.25;17.45;;;;;;;;;;4882955;29;20116;-72
2022/06/06 00:51:30;;;;;;;43.30;17.75;;;;;;;;;;4885529;29;20088;-71
2022/06/06 00:53:55;;;;;;;47.40;18.20;;;;;;;;;;4871317;29;21095;-72
2022/06/06 00:56:29;;;;;;;43.58;19.67;;;;;;;;;;4874478;29;20123;-71
2022/06/06 00:58:57;;;;;;;48.33;18.80;;;;;;;;;;4870399;29;20060;-71
2022/06/06 01:01:23;;;;;;;41.15;16.15;;;;;;;;;;4869624;29;20052;-70
2022/06/06 01:03:49;;;;;;;43.55;16.40;;;;;;;;;;4858360;29;20037;-73
2022/06/06 01:06:18;;;;;;;36.90;15.80;;;;;;;;;;4853201;29;20500;-71
2022/06/06 01:08:45;;;;;;;41.80;17.40;;;;;;;;;;4875616;29;20040;-71
2022/06/06 01:11:10;;;;;;;47.08;18.17;;;;;;;;;;4869703;29;20040;-68
2022/06/06 01:13:37;;;;;;;39.70;16.55;;;;;;;;;;4854848;29;20493;-68
2022/06/06 01:16:21;;;;;;;42.75;16.90;;;;;;;;;;4869864;29;20806;-69
2022/06/06 01:18:52;;;;;;;42.75;17.88;;;;;;;;;;4847034;29;20711;-69
2022/06/06 01:21:28;;;;;;;45.58;16.38;;;;;;;;;;4865707;29;20074;-69
2022/06/06 01:24:22;;;;;;;41.92;16.25;;;;;;;;;;4836934;29;20040;-68
2022/06/06 01:27:06;;;;;;;44.13;16.65;;;;;;;;;;4868075;29;20180;-69
2022/06/06 01:29:36;;;;;;;37.63;16.17;;;;;;;;;;4833552;29;20960;-68
2022/06/06 01:32:04;;;;;;;42.15;17.08;;;;;;;;;;4861368;29;20044;-69
2022/06/06 01:34:31;;;;;;;42.25;17.58;;;;;;;;;;4869966;29;20075;-72
2022/06/06 01:36:57;;;;;;;42.53;18.23;;;;;;;;;;4882506;29;20570;-71
2022/06/06 01:39:23;;;;;;;41.08;17.60;;;;;;;;;;4893483;29;20103;-70
2022/06/06 01:41:54;;;;;;;39.17;15.85;;;;;;;;;;4895519;29;20051;-69
2022/06/06 01:44:38;;;;;;;32.35;15.27;;;;;;;;;;4893065;29;20060;-69
2022/06/06 01:47:05;;;;;;;42.08;16.48;;;;;;;;;;4877904;29;20043;-71
2022/06/06 01:49:33;;;;;;;47.58;15.73;;;;;;;;;;4896075;29;20048;-69
2022/06/06 01:52:00;;;;;;;39.40;14.60;;;;;;;;;;4873752;29;20588;-71
2022/06/06 01:54:25;;;;;;;37.70;13.48;;;;;;;;;;4884417;29;20036;-71
2022/06/06 01:56:51;;;;;;;43.67;14.10;;;;;;;;;;4859274;29;20893;-69
2022/06/06 01:59:16;;;;;;;32.15;13.52;;;;;;;;;;4866397;29;20040;-69
2022/06/06 02:01:41;;;;;;;43.58;13.25;;;;;;;;;;4890507;29;20211;-70
2022/06/06 02:04:07;;;;;;;40.97;13.65;;;;;;;;;;4855533;29;20040;-71
2022/06/06 02:06:34;;;;;;;35.92;13.10;;;;;;;;;;4867821;29;20032;-70
2022/06/06 02:09:00;;;;;;;40.00;13.30;;;;;;;;;;4866771;29;20779;-71
2022/06/06 02:11:25;;;;;;;32.72;13.25;;;;;;;;;;4851572;29;20048;-73
2022/06/06 02:13:53;;;;;;;38.75;13.35;;;;;;;;;;4875020;29;20028;-70
2022/06/06 02:16:18;;;;;;;33.67;14.07;;;;;;;;;;4861613;29;20697;-71
2022/06/06 02:18:43;;;;;;;39.92;13.90;;;;;;;;;;4854673;29;20044;-70
2022/06/06 02:21:09;;;;;;;42.05;13.63;;;;;;;;;;4874678;29;20024;-70
2022/06/06 02:23:35;;;;;;;34.90;14.15;;;;;;;;;;4860071;29;20059;-71
2022/06/06 02:26:00;;;;;;;33.33;12.63;;;;;;;;;;4883265;29;20036;-71
2022/06/06 02:28:25;;;;;;;35.55;13.50;;;;;;;;;;4878633;29;20044;-71
2022/06/06 02:30:51;;;;;;;32.92;12.98;;;;;;;;;;4890089;29;20040;-70
2022/06/06 02:33:16;;;;;;;36.67;13.43;;;;;;;;;;4894235;29;20036;-70
2022/06/06 02:35:42;;;;;;;35.83;13.18;;;;;;;;;;4876505;29;20904;-71
2022/06/06 02:38:09;;;;;;;29.30;12.80;;;;;;;;;;4896065;29;20040;-71
2022/06/06 02:40:35;;;;;;;27.40;11.35;;;;;;;;;;4879963;29;20128;-71
2022/06/06 02:43:01;;;;;;;28.38;12.00;;;;;;;;;;4900740;29;20044;-72
2022/06/06 02:45:27;;;;;;;28.27;12.07;;;;;;;;;;4892843;29;20283;-69
2022/06/06 02:47:54;;;;;;;29.48;12.30;;;;;;;;;;4900829;29;20037;-70
2022/06/06 02:50:21;;;;;;;30.45;12.45;;;;;;;;;;4895804;29;20155;-70
2022/06/06 02:52:48;;;;;;;30.02;11.93;;;;;;;;;;4889577;29;20771;-70
2022/06/06 02:55:14;;;;;;;30.23;11.25;;;;;;;;;;4883936;29;20074;-72
2022/06/06 02:57:44;;;;;;;26.92;11.50;;;;;;;;;;4892259;29;20036;-71
2022/06/06 03:00:13;;;;;;;27.63;10.95;;;;;;;;;;4873259;29;20036;-69
2022/06/06 03:02:38;;;;;;;28.60;11.18;;;;;;;;;;4873628;29;20060;-70
2022/06/06 03:05:06;;;;;;;24.92;10.30;;;;;;;;;;4893148;29;20200;-69
2022/06/06 03:07:48;;;;;;;28.10;9.70;;;;;;;;;;4883182;29;20040;-72
2022/06/06 03:10:32;;;;;;;28.50;10.45;;;;;;;;;;4890340;29;20135;-69
2022/06/06 03:13:16;;;;;;;28.55;10.75;;;;;;;;;;4892557;29;20066;-71
2022/06/06 03:21:53;;;;;;;26.58;12.20;;;;;;;;;;4889925;29;20036;-71
2022/06/06 03:24:37;;;;;;;33.88;13.30;;;;;;;;;;4866641;29;20493;-71
2022/06/06 03:27:03;;;;;;;30.35;11.93;;;;;;;;;;4891461;29;20024;-71
2022/06/06 03:29:38;;;;;;;29.90;12.18;;;;;;;;;;4886051;29;20032;-70
2022/06/06 03:32:16;;;;;;;31.52;13.02;;;;;;;;;;4874618;29;20040;-71
2022/06/06 03:34:41;;;;;;;31.40;13.02;;;;;;;;;;4897673;29;20040;-70
2022/06/06 03:37:06;;;;;;;30.17;12.77;;;;;;;;;;4889124;29;20237;-71
2022/06/06 03:39:32;;;;;;;42.00;13.75;;;;;;;;;;4890239;29;20054;-69
2022/06/06 03:42:15;;;;;;;37.10;13.50;;;;;;;;;;4881058;29;20048;-71
2022/06/06 03:44:50;;;;;;;44.50;14.85;;;;;;;;;;4873035;29;21850;-71
2022/06/06 03:47:21;;;;;;;33.08;13.13;;;;;;;;;;4873737;29;20849;-70
2022/06/06 03:49:49;;;;;;;31.65;12.38;;;;;;;;;;4874752;29;20044;-71
2022/06/06 03:52:15;;;;;;;38.88;12.98;;;;;;;;;;4876550;29;20078;-69
2022/06/06 03:54:45;;;;;;;35.50;13.00;;;;;;;;;;4866860;29;21544;-69
2022/06/06 03:57:13;;;;;;;27.42;11.15;;;;;;;;;;4878598;29;20032;-73
2022/06/06 03:59:39;;;;;;;29.00;11.15;;;;;;;;;;4882331;29;20560;-71
2022/06/06 04:02:05;;;;;;;29.15;11.15;;;;;;;;;;4870381;29;20036;-72
2022/06/06 04:04:33;;;;;;;35.40;12.27;;;;;;;;;;4881674;29;20180;-72
2022/06/06 04:06:59;;;;;;;30.58;11.10;;;;;;;;;;4878790;29;20642;-73
2022/06/06 04:09:27;;;;;;;29.17;11.23;;;;;;;;;;4881408;29;20044;-73
2022/06/06 04:11:55;;;;;;;29.45;10.43;;;;;;;;;;4880183;29;20044;-72
2022/06/06 04:14:33;;;;;;;32.22;10.45;;;;;;;;;;4875856;29;20032;-74
2022/06/06 04:16:58;;;;;;;34.13;10.73;;;;;;;;;;4876140;29;20169;-73
2022/06/06 04:19:40;;;;;;;27.15;10.30;;;;;;;;;;4872706;29;20059;-72
2022/06/06 04:22:24;;;;;;;23.98;10.55;;;;;;;;;;4873465;29;20068;-73
2022/06/06 04:25:02;;;;;;;29.73;9.80;;;;;;;;;;4870201;29;20044;-74
2022/06/06 04:27:37;;;;;;;29.45;9.77;;;;;;;;;;4869600;29;21131;-73
2022/06/06 04:30:05;;;;;;;20.58;9.30;;;;;;;;;;4870125;29;20148;-73
2022/06/06 04:32:34;;;;;;;22.23;9.50;;;;;;;;;;4868925;29;20056;-72
2022/06/06 04:35:17;;;;;;;25.95;9.77;;;;;;;;;;4867829;29;20134;-73
2022/06/06 04:37:46;;;;;;;26.83;9.77;;;;;;;;;;4868166;29;20040;-73
2022/06/06 04:40:11;;;;;;;24.00;9.05;;;;;;;;;;4866722;29;20040;-72
2022/06/06 04:43:05;;;;;;;20.48;9.25;;;;;;;;;;4868690;29;20055;-74
2022/06/06 04:45:35;;;;;;;23.13;8.93;;;;;;;;;;4865677;29;20060;-68
2022/06/06 04:48:02;;;;;;;18.92;8.27;;;;;;;;;;4853291;29;20040;-68
2022/06/06 04:50:28;;;;;;;21.83;8.77;;;;;;;;;;4873661;29;20319;-67
2022/06/06 04:52:59;;;;;;;24.25;9.18;;;;;;;;;;4869855;29;20060;-67
2022/06/06 04:55:25;;;;;;;28.73;9.55;;;;;;;;;;4874960;29;20062;-67
2022/06/06 04:57:52;;;;;;;27.92;10.02;;;;;;;;;;4861980;29;20084;-66
2022/06/06 05:00:18;;;;;;;27.85;10.68;;;;;;;;;;4854458;29;20214;-67
2022/06/06 05:02:43;;;;;;;27.85;9.93;;;;;;;;;;4873156;29;20045;-67
2022/06/06 05:05:09;;;;;;;23.00;8.93;;;;;;;;;;4871333;29;20032;-68
2022/06/06 05:07:50;;;;;;;23.35;9.07;;;;;;;;;;4855366;29;20036;-66
2022/06/06 05:10:37;;;;;;;23.73;8.40;;;;;;;;;;4879883;29;20052;-68
2022/06/06 05:13:02;;;;;;;21.67;8.95;;;;;;;;;;4886660;29;20036;-69
2022/06/06 05:15:47;;;;;;;19.05;8.02;;;;;;;;;;4889562;29;20035;-68
2022/06/06 05:18:36;;;;;;;24.77;9.23;;;;;;;;;;4866970;29;20441;-67
2022/06/06 05:21:23;;;;;;;22.88;9.30;;;;;;;;;;4857878;29;20036;-68
2022/06/06 05:23:48;;;;;;;25.23;9.73;;;;;;;;;;4877625;29;20036;-69
2022/06/06 05:26:26;;;;;;;21.55;8.75;;;;;;;;;;4873654;29;20769;-70
2022/06/06 05:28:57;;;;;;;23.90;10.00;;;;;;;;;;4876031;29;20090;-69
2022/06/06 05:31:41;;;;;;;26.17;11.43;;;;;;;;;;4878483;29;20091;-69
2022/06/06 05:34:23;;;;;;;27.88;11.02;;;;;;;;;;4878093;29;20359;-69
2022/06/06 05:36:48;;;;;;;;;;;;;;;;;;4878583;29;20062;-70
2022/06/06 05:39:19;;;;;;;24.20;11.20;;;;;;;;;;4872959;29;19916;-69
2022/06/06 05:41:47;;;;;;;28.67;11.50;;;;;;;;;;4884252;29;20083;-70
2022/06/06 05:44:15;;;;;;;31.95;12.00;;;;;;;;;;4886486;29;20119;-70
2022/06/06 05:46:47;;;;;;;23.25;10.80;;;;;;;;;;4886488;29;20572;-70
2022/06/06 05:49:24;;;;;;;27.98;10.93;;;;;;;;;;4890996;29;20051;-71
2022/06/06 05:51:53;;;;;;;28.45;9.70;;;;;;;;;;4891016;29;20669;-69
2022/06/06 05:54:18;;;;;;;29.08;8.95;;;;;;;;;;4889233;29;20036;-69
2022/06/06 05:56:55;;;;;;;31.77;8.27;;;;;;;;;;4883778;29;20086;-69
2022/06/06 05:59:26;;;;;;;24.30;7.43;;;;;;;;;;4893505;29;20433;-68
2022/06/06 06:02:00;;;;;;;22.80;6.90;;;;;;;;;;4884046;29;20036;-68
2022/06/06 06:04:28;;;;;;;21.90;6.95;;;;;;;;;;4868533;29;20040;-69
2022/06/06 06:07:12;;;;;;;19.42;6.78;;;;;;;;;;4873365;29;20032;-69
2022/06/06 06:10:04;;;;;;;26.75;7.78;;;;;;;;;;4889668;29;20040;-69
2022/06/06 06:12:33;;;;;;;19.73;6.80;;;;;;;;;;4882458;29;20067;-72
2022/06/06 06:15:04;;;;;;;18.30;6.95;;;;;;;;;;4887017;29;20260;-69
2022/06/06 06:17:33;;;;;;;25.33;6.95;;;;;;;;;;4886903;29;20594;-67
2022/06/06 06:20:02;;;;;;;20.75;6.55;;;;;;;;;;4891784;29;20040;-69
2022/06/06 06:22:34;;;;;;;20.40;7.20;;;;;;;;;;4891413;29;20048;-69
2022/06/06 06:25:01;;;;;;;20.58;6.05;;;;;;;;;;4889009;29;20150;-69
2022/06/06 06:27:28;;;;;;;22.02;6.15;;;;;;;;;;4874595;29;20489;-69
2022/06/06 06:29:53;;;;;;;22.77;7.07;;;;;;;;;;4872231;29;20059;-71
2022/06/06 06:32:34;;;;;;;21.48;6.72;;;;;;;;;;4871981;29;20032;-72
2022/06/06 06:35:08;;;;;;;15.73;5.57;;;;;;;;;;4866719;29;20846;-71
2022/06/06 06:37:48;;;;;;;19.67;6.40;;;;;;;;;;4871954;29;20076;-72
2022/06/06 06:40:13;;;;;;;15.93;6.93;;;;;;;;;;4870795;29;20040;-74
2022/06/06 06:42:56;;;;;;;18.35;6.28;;;;;;;;;;4866787;29;20067;-72
2022/06/06 06:45:23;;;;;;;18.25;5.95;;;;;;;;;;4865523;29;21897;-72
2022/06/06 06:47:52;;;;;;;16.98;6.20;;;;;;;;;;4867820;29;20047;-69
2022/06/06 06:50:31;;;;;;;15.32;6.40;;;;;;;;;;4876723;29;20064;-68
2022/06/06 06:52:56;;;;;;;13.65;5.55;;;;;;;;;;4868810;29;20151;-68
2022/06/06 06:55:37;;;;;;;16.10;5.70;;;;;;;;;;4871156;29;20918;-69
2022/06/06 06:58:02;;;;;;;18.38;5.95;;;;;;;;;;4866723;29;20896;-67
2022/06/06 07:00:35;;;;;;;17.70;5.30;;;;;;;;;;4868882;29;20123;-68
2022/06/06 07:08:55;;;;;;;11.18;4.15;;;;;;;;;;4872759;29;20053;-68
2022/06/06 07:11:36;;;;;;;16.42;4.60;;;;;;;;;;4873015;29;20044;-68
2022/06/06 07:14:06;;;;;;;18.40;5.03;;;;;;;;;;4854403;29;20126;-68
2022/06/06 07:16:38;;;;;;;17.17;4.60;;;;;;;;;;4874309;29;20052;-68
2022/06/06 07:19:06;;;;;;;23.75;4.93;;;;;;;;;;4852223;29;20050;-70
2022/06/06 07:21:33;;;;;;;18.00;4.60;;;;;;;;;;4874286;29;20122;-66
2022/06/06 07:23:59;;;;;;;17.95;4.57;;;;;;;;;;4876590;29;20070;-67
2022/06/06 07:26:31;;;;;;;15.13;4.07;;;;;;;;;;4851515;29;20040;-70
2022/06/06 07:28:56;;;;;;;20.17;4.70;;;;;;;;;;4873218;29;20036;-68
2022/06/06 07:31:27;;;;;;;18.17;4.22;;;;;;;;;;4872712;29;20904;-68
2022/06/06 07:34:11;;;;;;;16.15;4.15;;;;;;;;;;4876120;29;20028;-66
2022/06/06 07:36:56;;;;;;;15.23;4.18;;;;;;;;;;4880338;29;20805;-70
2022/06/06 07:39:21;;;;;;;16.25;3.13;;;;;;;;;;4859216;29;20036;-68
2022/06/06 07:41:50;;;;;;;16.50;3.30;;;;;;;;;;4849736;29;20048;-68
2022/06/06 07:44:31;;;;;;;14.55;3.30;;;;;;;;;;4854534;29;20041;-68
2022/06/06 07:47:18;;;;;;;11.38;2.72;;;;;;;;;;4874259;29;20068;-67
2022/06/06 07:49:46;;;;;;;19.80;3.83;;;;;;;;;;4877041;29;20052;-67
2022/06/06 07:52:29;;;;;;;11.65;3.53;;;;;;;;;;4872756;29;20040;-67
2022/06/06 07:55:14;;;;;;;17.08;3.20;;;;;;;;;;4874571;29;20036;-66
2022/06/06 07:57:39;;;;;;;16.65;3.00;;;;;;;;;;4875799;29;20834;-67
2022/06/06 08:00:09;;;;;;;15.15;2.97;;;;;;;;;;4875993;29;20043;-68
2022/06/06 08:02:57;;;;;;;15.88;2.85;;;;;;;;;;4872763;29;20032;-69
2022/06/06 08:05:22;;;;;;;20.83;3.72;;;;;;;;;;4857956;29;20835;-69
2022/06/06 08:07:57;;;;;;;13.30;3.50;;;;;;;;;;4869752;29;20071;-69
2022/06/06 08:10:25;;;;;;;20.25;3.53;;;;;;;;;;4867268;29;20356;-69
2022/06/06 08:13:08;;;;;;;20.88;3.80;;;;;;;;;;4870070;29;20915;-68
2022/06/06 08:15:49;;;;;;;14.77;3.05;;;;;;;;;;4871332;29;20853;-67
2022/06/06 08:18:33;;;;;;;15.27;3.60;;;;;;;;;;4854846;29;20044;-67
2022/06/06 08:21:17;;;;;;;16.52;3.70;;;;;;;;;;4868331;29;20747;-67
2022/06/06 08:23:43;;;;;;;15.82;3.58;;;;;;;;;;4868629;29;20110;-67
2022/06/06 08:26:10;;;;;;;12.80;2.40;;;;;;;;;;4866919;29;20047;-68
2022/06/06 08:28:37;;;;;;;11.40;2.45;;;;;;;;;;4866249;29;20047;-70
2022/06/06 08:31:03;;;;;;;12.93;2.60;;;;;;;;;;4857385;29;20048;-67
2022/06/06 08:33:28;;;;;;;10.57;2.80;;;;;;;;;;4863809;29;20067;-70
2022/06/06 08:36:26;;;;;;;16.88;3.33;;;;;;;;;;4867681;29;20029;-69
2022/06/06 08:39:10;;;;;;;13.48;2.65;;;;;;;;;;4827887;29;20331;-69
2022/06/06 08:41:38;;;;;;;14.63;3.00;;;;;;;;;;4844235;29;20708;-69
2022/06/06 08:44:12;;;;;;;10.60;2.33;;;;;;;;;;4865499;29;20036;-69
2022/06/06 08:46:59;;;;;;;16.00;3.28;;;;;;;;;;4869730;29;20142;-68
2022/06/06 08:52:40;;;;;;;12.70;2.88;;;;;;;;;;4869225;29;20599;-68
2022/06/06 08:55:34;;;;;;;17.83;4.07;;;;;;;;;;4868254;29;20028;-69
2022/06/06 08:58:15;;;;;;;13.17;2.83;;;;;;;;;;4862685;29;20070;-66
2022/06/06 09:00:40;;;;;;;16.23;3.72;;;;;;;;;;4853559;29;20041;-67
2022/06/06 09:03:19;;;;;;;24.13;4.00;;;;;;;;;;4868015;29;20148;-67
2022/06/06 09:05:57;;;;;;;14.63;3.30;;;;;;;;;;4868325;29;20960;-68
2022/06/06 09:08:40;;;;;;;14.63;3.55;;;;;;;;;;4871480;29;20048;-69
2022/06/06 09:11:14;;;;;;;10.82;3.25;;;;;;;;;;4871934;29;20468;-68
2022/06/06 09:14:05;;;;;;;13.38;2.97;;;;;;;;;;4877044;29;20028;-70
2022/06/06 09:16:54;;;;;;;17.13;3.63;;;;;;;;;;4869705;29;20047;-67
2022/06/06 09:19:44;;;;;;;16.38;3.10;;;;;;;;;;4864894;29;20099;-64
2022/06/06 09:22:30;;;;;;;16.40;3.80;;;;;;;;;;4864368;29;21065;-65
2022/06/06 09:25:16;;;;;;;17.77;3.78;;;;;;;;;;4864214;29;20036;-68
2022/06/06 09:28:00;;;;;;;17.55;3.92;;;;;;;;;;4863123;29;20092;-67
2022/06/06 09:30:49;;;;;;;15.40;3.58;;;;;;;;;;4865937;29;20055;-67
2022/06/06 09:33:28;;;;;;;15.70;3.95;;;;;;;;;;4865533;29;20187;-66
2022/06/06 09:36:13;;;;;;;18.45;3.85;;;;;;;;;;4864058;29;20040;-67
2022/06/06 09:38:38;;;;;;;13.52;3.25;;;;;;;;;;4863228;29;21050;-66
2022/06/06 09:41:04;;;;;;;17.50;3.65;;;;;;;;;;4864738;29;20040;-66
2022/06/06 09:43:34;;;;;;;20.00;4.05;;;;;;;;;;4864146;29;20040;-66
2022/06/06 09:46:01;;;;;;;17.73;3.92;;;;;;;;;;4865907;29;20919;-67
2022/06/06 09:48:48;;;;;;;17.05;3.83;;;;;;;;;;4864568;29;20854;-66
2022/06/06 09:51:13;;;;;;;22.98;4.25;;;;;;;;;;4864875;29;20044;-65
2022/06/06 09:59:47;;;;;;;16.27;3.80;;;;;;;;;;4863756;29;20912;-66
2022/06/06 10:02:31;;;;;;;17.70;3.40;;;;;;;;;;4866548;29;20028;-67
2022/06/06 10:05:11;;;;;;;18.58;4.22;;;;;;;;;;4864414;29;22409;-66
2022/06/06 10:07:50;;;;;;;22.27;4.60;;;;;;;;;;4863549;29;20043;-66
2022/06/06 10:10:18;;;;;;;19.77;4.13;;;;;;;;;;4862910;29;20191;-65
2022/06/06 10:12:55;;;;;;;22.88;4.75;;;;;;;;;;4865695;29;20036;-65
2022/06/06 10:15:55;;;;;;;17.70;3.95;;;;;;;;;;4865217;29;20047;-66
2022/06/06 10:18:40;;;;;;;21.95;4.38;;;;;;;;;;4822311;29;20041;-65
2022/06/06 10:21:24;;;;;;;18.85;3.90;;;;;;;;;;4861522;29;20043;-65
2022/06/06 10:23:56;;;;;;;13.25;3.30;;;;;;;;;;4865844;29;20040;-67
2022/06/06 10:26:48;;;;;;;15.43;4.07;;;;;;;;;;4865775;29;20047;-66
2022/06/06 10:29:22;;;;;;;21.83;4.38;;;;;;;;;;4839765;29;20041;-67
2022/06/06 10:31:54;;;;;;;21.67;4.55;;;;;;;;;;4865026;29;20095;-65
2022/06/06 10:34:34;;;;;;;23.15;5.00;;;;;;;;;;4863910;29;20040;-67
2022/06/06 10:37:05;;;;;;;14.38;4.20;;;;;;;;;;4863850;29;20044;-65
2022/06/06 10:39:30;;;;;;;23.15;5.50;;;;;;;;;;4867276;29;20051;-66
2022/06/06 10:42:11;;;;;;;13.82;4.65;;;;;;;;;;4869749;29;20882;-66
2022/06/06 10:44:52;;;;;;;18.20;4.30;;;;;;;;;;4866149;29;20075;-65
2022/06/06 10:47:36;;;;;;;13.75;4.63;;;;;;;;;;4848750;29;20109;-66
2022/06/06 10:50:01;;;;;;;18.00;4.63;;;;;;;;;;4869194;29;20055;-66
2022/06/06 10:52:43;;;;;;;13.40;4.75;;;;;;;;;;4867607;29;20150;-65
2022/06/06 10:55:17;;;;;;;19.40;5.47;;;;;;;;;;4866466;29;22413;-66
2022/06/06 10:58:03;;;;;;;16.38;5.30;;;;;;;;;;4868658;29;20048;-67
2022/06/06 11:00:29;;;;;;;24.40;5.05;;;;;;;;;;4866956;29;20131;-66
2022/06/06 11:03:15;;;;;;;17.35;4.47;;;;;;;;;;4850095;29;20051;-69
2022/06/06 11:05:59;;;;;;;22.42;6.10;;;;;;;;;;4865100;29;20040;-67
2022/06/06 11:08:37;;;;;;;17.17;5.20;;;;;;;;;;4866896;29;20044;-68
2022/06/06 11:11:18;;;;;;;18.17;5.50;;;;;;;;;;4867593;29;20147;-66
2022/06/06 11:13:51;;;;;;;22.45;5.88;;;;;;;;;;4858779;29;20036;-67
2022/06/06 11:16:22;;;;;;;18.80;6.28;;;;;;;;;;4866027;29;20051;-67
2022/06/06 11:19:13;;;;;;;20.27;5.63;;;;;;;;;;4867522;29;20044;-67
2022/06/06 11:21:39;;;;;;;;;;;;;;;;;;4830394;29;20127;-68
2022/06/06 11:24:18;;;;;;;17.55;5.88;;;;;;;;;;4866296;29;19919;-66
2022/06/06 11:26:59;;;;;;;19.55;6.45;;;;;;;;;;4866183;29;20321;-69
2022/06/06 11:29:39;;;;;;;22.38;5.50;;;;;;;;;;4865994;29;20910;-68
2022/06/06 11:32:10;;;;;;;17.80;6.68;;;;;;;;;;4866123;29;20764;-67
2022/06/06 11:34:48;;;;;;;16.25;6.35;;;;;;;;;;4868029;29;20153;-68
2022/06/06 11:37:25;;;;;;;14.50;5.40;;;;;;;;;;4867968;29;20120;-68
2022/06/06 11:39:50;;;;;;;19.63;5.15;;;;;;;;;;4868439;29;20043;-68
2022/06/06 11:42:35;;;;;;;16.48;5.50;;;;;;;;;;4867823;29;20040;-68
2022/06/06 11:45:00;;;;;;;32.75;6.32;;;;;;;;;;4867830;29;20044;-66
2022/06/06 11:47:37;;;;;;;19.25;5.55;;;;;;;;;;4868078;29;20072;-69
2022/06/06 11:50:02;;;;;;;23.88;5.78;;;;;;;;;;4867189;29;20139;-67
2022/06/06 11:52:27;;;;;;;21.40;4.30;;;;;;;;;;4868784;29;20047;-68
2022/06/06 11:55:12;;;;;;;17.65;4.45;;;;;;;;;;4867145;29;20040;-68
2022/06/06 11:57:54;;;;;;;16.13;4.00;;;;;;;;;;4869597;29;20036;-69
2022/06/06 12:00:22;;;;;;;16.70;4.07;;;;;;;;;;4862473;29;20041;-69
2022/06/06 12:03:18;;;;;;;22.30;4.05;;;;;;;;;;4868240;29;20791;-68
2022/06/06 12:06:04;;;;;;;9.80;2.90;;;;;;;;;;4799817;29;20094;-69
2022/06/06 12:08:36;;;;;;;18.25;3.70;;;;;;;;;;4869746;29;20135;-70
2022/06/06 12:11:01;;;;;;;15.70;2.72;;;;;;;;;;4866385;29;20051;-68
2022/06/06 12:13:26;;;;;;;11.65;2.53;;;;;;;;;;4865868;29;20047;-69
2022/06/06 12:15:58;;;;;;;9.68;2.08;;;;;;;;;;4865449;29;20028;-68
2022/06/06 12:18:42;;;;;;;10.43;2.40;;;;;;;;;;4864926;29;22406;-67
2022/06/06 12:21:22;;;;;;;14.95;2.78;;;;;;;;;;4846743;29;20877;-68
2022/06/06 12:23:54;;;;;;;15.38;2.70;;;;;;;;;;4858297;29;20041;-68
2022/06/06 12:26:19;;;;;;;;;;;;;;;;;;4865070;29;20040;-69
2022/06/06 12:29:03;;;;;;;8.77;2.30;;;;;;;;;;4864516;29;20471;-67
2022/06/06 12:31:32;;;;;;;12.40;2.08;;;;;;;;;;4865285;29;20288;-71
2022/06/06 12:34:19;;;;;;;10.20;1.90;;;;;;;;;;4863145;29;20049;-70
2022/06/06 12:36:45;;;;;;;15.73;2.30;;;;;;;;;;4846003;29;20050;-70
2022/06/06 12:39:17;;;;;;;9.15;1.70;;;;;;;;;;4863747;29;20117;-70
2022/06/06 12:42:02;;;;;;;13.07;1.77;;;;;;;;;;4828742;29;1115985;-71
2022/06/06 12:44:31;;;;;;;17.17;2.00;;;;;;;;;;4873042;29;20040;-69
2022/06/06 12:46:56;;;;;;;11.65;2.15;;;;;;;;;;4875066;29;20040;-69
2022/06/06 12:49:37;;;;;;;13.30;2.55;;;;;;;;;;4863135;29;20043;-69
2022/06/06 12:52:23;;;;;;;14.80;3.00;;;;;;;;;;4886451;29;20147;-69
2022/06/06 12:57:53;;;;;;;13.93;2.50;;;;;;;;;;4882225;29;20032;-70
2022/06/06 13:01:37;;;;;;;9.23;1.97;;;;;;;;;;4867065;29;20036;-72
2022/06/06 13:03:16;;;;;;;9.68;1.85;;;;;;;;;;4844914;29;20572;-71
2022/06/06 13:05:51;;;;;;;13.10;2.00;;;;;;;;;;4862507;29;20096;-73
2022/06/06 13:08:24;;;;;;;10.05;1.95;;;;;;;;;;4863140;29;20036;-73
2022/06/06 13:11:09;;;;;;;13.50;2.22;;;;;;;;;;4863676;29;20039;-71
2022/06/06 13:13:44;;;;;;;11.77;1.80;;;;;;;;;;4861531;29;20127;-72
2022/06/06 13:16:26;;;;;;;12.15;2.08;;;;;;;;;;4864420;29;20059;-73
2022/06/06 13:19:03;;;;;;;14.68;2.55;;;;;;;;;;4846799;29;20048;-72
2022/06/06 13:21:34;;;;;;;15.77;2.30;;;;;;;;;;4862522;29;20068;-70
2022/06/06 13:24:19;;;;;;;10.13;2.00;;;;;;;;;;4846045;29;20051;-71
2022/06/06 13:26:48;;;;;;;8.63;1.85;;;;;;;;;;4864566;29;20074;-71
2022/06/06 13:29:26;;;;;;;15.82;2.70;;;;;;;;;;4842797;29;20044;-72
2022/06/06 13:31:53;;;;;;;13.10;2.60;;;;;;;;;;4843342;29;20810;-71
2022/06/06 13:34:19;;;;;;;13.13;2.58;;;;;;;;;;4864362;29;20036;-67
2022/06/06 13:37:02;;;;;;;16.27;2.60;;;;;;;;;;4866579;29;20492;-72
2022/06/06 13:39:48;;;;;;;23.08;4.07;;;;;;;;;;4864603;29;20243;-70
2022/06/06 13:42:32;;;;;;;12.05;2.10;;;;;;;;;;4859019;29;20461;-73
2022/06/06 13:45:00;;;;;;;14.80;2.38;;;;;;;;;;4866556;29;20046;-71
2022/06/06 13:47:40;;;;;;;15.55;2.88;;;;;;;;;;4847470;29;20043;-70
2022/06/06 13:50:28;;;;;;;16.33;2.72;;;;;;;;;;4864906;29;20884;-73
2022/06/06 13:53:04;;;;;;;14.50;2.75;;;;;;;;;;4864931;29;20036;-71
2022/06/06 13:55:33;;;;;;;12.88;3.05;;;;;;;;;;4866022;29;20095;-73
2022/06/06 13:58:12;;;;;;;12.40;2.92;;;;;;;;;;4864449;29;20055;-73
2022/06/06 14:00:48;;;;;;;15.93;3.92;;;;;;;;;;4863599;29;20067;-72
2022/06/06 14:03:25;;;;;;;15.38;3.40;;;;;;;;;;4863595;29;20059;-70
2022/06/06 14:06:01;;;;;;;11.73;3.92;;;;;;;;;;4846153;29;20284;-71
2022/06/06 14:08:45;;;;;;;17.20;4.53;;;;;;;;;;4861885;29;20143;-71
2022/06/06 14:11:11;;;;;;;19.63;6.30;;;;;;;;;;4863921;29;20776;-71
2022/06/06 14:13:45;;;;;;;12.73;4.22;;;;;;;;;;4841707;29;20028;-73
2022/06/06 14:16:34;;;;;;;18.10;4.60;;;;;;;;;;4861990;29;20139;-72
2022/06/06 14:19:07;;;;;;;14.90;4.43;;;;;;;;;;4854019;29;20052;-71
2022/06/06 14:21:34;;;;;;;22.05;4.72;;;;;;;;;;4861981;29;20068;-70
2022/06/06 14:24:07;;;;;;;12.02;4.07;;;;;;;;;;4862089;29;20051;-72
2022/06/06 14:26:32;;;;;;;11.82;4.50;;;;;;;;;;4861417;29;21137;-69
2022/06/06 14:29:11;;;;;;;13.13;3.60;;;;;;;;;;4861205;29;20036;-70
2022/06/06 14:31:52;;;;;;;10.35;4.00;;;;;;;;;;4859763;29;20100;-71
2022/06/06 14:34:21;;;;;;;15.15;4.78;;;;;;;;;;4860934;29;20071;-72
2022/06/06 14:37:03;;;;;;;27.33;10.93;;;;;;;;;;4858608;29;20036;-70
2022/06/06 14:39:31;;;;;;;11.90;4.07;;;;;;;;;;4852339;29;20868;-71
2022/06/06 14:41:57;;;;;;;11.95;3.42;;;;;;;;;;4846163;29;20230;-71
2022/06/06 14:44:43;;;;;;;13.10;3.50;;;;;;;;;;4843034;29;20048;-71
2022/06/06 14:47:12;;;;;;;15.15;4.57;;;;;;;;;;4843149;29;20486;-71
2022/06/06 14:49:40;;;;;;;16.50;4.43;;;;;;;;;;4828395;29;20156;-70
2022/06/06 14:52:15;;;;;;;13.40;4.70;;;;;;;;;;4841102;29;20065;-72
2022/06/06 14:54:46;;;;;;;14.05;5.38;;;;;;;;;;4856614;29;20094;-72
2022/06/06 14:57:12;;;;;;;15.77;4.47;;;;;;;;;;4842369;29;20064;-72
2022/06/06 14:59:38;;;;;;;13.93;4.78;;;;;;;;;;4825384;29;20270;-69
2022/06/06 15:02:09;;;;;;;13.52;4.75;;;;;;;;;;4844107;29;20115;-71
2022/06/06 15:04:37;;;;;;;16.73;6.22;;;;;;;;;;4837114;29;20077;-70
2022/06/06 15:07:03;;;;;;;20.75;6.05;;;;;;;;;;4860823;29;20053;-73
2022/06/06 15:09:28;;;;;;;15.40;5.80;;;;;;;;;;4872852;29;20049;-73
2022/06/06 15:11:55;;;;;;;19.80;6.85;;;;;;;;;;4863947;29;20905;-72
2022/06/06 15:14:31;;;;;;;17.38;6.78;;;;;;;;;;4860841;29;20048;-72
2022/06/06 15:16:58;;;;;;;21.48;6.90;;;;;;;;;;4855230;29;20036;-69
2022/06/06 15:19:36;;;;;;;25.10;6.90;;;;;;;;;;4856368;29;20060;-68
2022/06/06 15:22:02;;;;;;;27.38;7.20;;;;;;;;;;4857391;29;20047;-71
2022/06/06 15:24:33;;;;;;;20.88;8.05;;;;;;;;;;4871520;29;20032;-70
2022/06/06 15:27:01;;;;;;;21.95;7.65;;;;;;;;;;4864427;29;20071;-70
2022/06/06 15:29:33;;;;;;;21.20;7.10;;;;;;;;;;4865509;29;20139;-68
2022/06/06 15:32:16;;;;;;;23.80;8.10;;;;;;;;;;4873268;29;20437;-69